createdAt,value
2022-08-10T00:00:48.521Z,65.17
2022-08-10T00:01:51.593Z,65.17
2022-08-10T00:02:48.498Z,65.17
2022-08-10T00:03:48.487Z,65.17
2022-08-10T00:04:48.507Z,65.17
2022-08-10T00:05:52.547Z,65.17
2022-08-10T00:06:48.457Z,65.17
2022-08-10T00:07:48.444Z,65.17
2022-08-10T00:08:48.438Z,65.17
2022-08-10T00:09:51.062Z,65.17
2022-08-10T00:10:48.436Z,65.17
2022-08-10T00:11:48.430Z,65.26
2022-08-10T00:12:54.332Z,65.26
2022-08-10T00:13:49.378Z,65.26
2022-08-10T00:14:48.379Z,65.26
2022-08-10T00:15:53.684Z,65.26
2022-08-10T00:16:49.370Z,65.26
2022-08-10T00:17:48.336Z,65.26
2022-08-10T00:18:48.352Z,65.26
2022-08-10T00:20:03.907Z,65.26
2022-08-10T00:20:49.303Z,65.26
2022-08-10T00:21:48.297Z,65.26
2022-08-10T00:22:52.833Z,65.26
2022-08-10T00:23:49.383Z,65.26
2022-08-10T00:24:48.282Z,65.26
2022-08-10T00:25:48.257Z,65.26
2022-08-10T00:27:57.859Z,65.26
2022-08-10T00:28:02.054Z,65.26
2022-08-10T00:28:49.219Z,65.26
2022-08-10T00:29:48.229Z,65.26
2022-08-10T00:30:48.198Z,65.26
2022-08-10T00:31:57.865Z,65.26
2022-08-10T00:32:49.200Z,65.26
2022-08-10T00:33:48.167Z,65.26
2022-08-10T00:34:48.176Z,65.26
2022-08-10T00:35:48.155Z,65.26
2022-08-10T00:36:48.133Z,65.26
2022-08-10T00:37:57.655Z,65.26
2022-08-10T00:38:49.111Z,65.26
2022-08-10T00:39:48.183Z,65.26
2022-08-10T00:40:48.091Z,65.26
2022-08-10T00:42:02.207Z,65.26
2022-08-10T00:42:49.100Z,65.26
2022-08-10T00:43:48.063Z,65.26
2022-08-10T00:44:48.049Z,65.26
2022-08-10T00:45:59.824Z,65.26
2022-08-10T00:46:49.031Z,65.26
2022-08-10T00:47:48.018Z,65.26
2022-08-10T00:49:00.148Z,65.26
2022-08-10T00:49:48.995Z,65.26
2022-08-10T00:50:47.985Z,65.26
2022-08-10T00:51:48.893Z,65.26
2022-08-10T00:52:47.963Z,65.26
2022-08-10T00:53:47.976Z,65.26
2022-08-10T00:54:47.943Z,65.26
2022-08-10T00:57:12.487Z,65.26
2022-08-10T00:57:16.326Z,65.26
2022-08-10T00:57:55.455Z,65.26
2022-08-10T00:58:48.901Z,65.37
2022-08-10T00:59:58.023Z,65.26
2022-08-10T01:00:48.878Z,65.37
2022-08-10T01:02:09.205Z,65.26
2022-08-10T01:02:49.014Z,65.26
2022-08-10T01:04:54.216Z,65.37
2022-08-10T01:04:59.981Z,65.26
2022-08-10T01:05:51.682Z,65.26
2022-08-10T01:06:47.838Z,65.26
2022-08-10T01:07:47.806Z,65.26
2022-08-10T01:08:47.817Z,65.37
2022-08-10T01:09:55.661Z,65.37
2022-08-10T01:10:48.773Z,65.37
2022-08-10T01:12:39.701Z,65.37
2022-08-10T01:12:48.981Z,65.37
2022-08-10T01:13:47.742Z,65.37
2022-08-10T01:14:47.753Z,65.37
2022-08-10T01:15:47.718Z,65.37
2022-08-10T01:16:47.709Z,65.37
2022-08-10T01:17:49.974Z,65.37
2022-08-10T01:18:47.691Z,65.37
2022-08-10T01:19:47.712Z,65.37
2022-08-10T01:20:47.664Z,65.37
2022-08-10T01:21:54.063Z,65.37
2022-08-10T01:22:48.643Z,65.37
2022-08-10T01:23:47.631Z,65.37
2022-08-10T01:24:47.625Z,65.37
2022-08-10T01:26:12.072Z,65.37
2022-08-10T01:26:49.192Z,65.37
2022-08-10T01:27:47.590Z,65.37
2022-08-10T01:28:47.603Z,65.37
2022-08-10T01:29:47.567Z,65.37
2022-08-10T01:30:47.557Z,65.37
2022-08-10T01:31:47.548Z,65.37
2022-08-10T01:32:47.535Z,65.37
2022-08-10T01:33:59.163Z,65.37
2022-08-10T01:34:48.540Z,65.37
2022-08-10T01:35:47.504Z,65.37
2022-08-10T01:36:47.493Z,65.37
2022-08-10T01:37:52.310Z,65.37
2022-08-10T01:38:48.471Z,65.37
2022-08-10T01:39:47.580Z,65.37
2022-08-10T01:40:47.470Z,65.37
2022-08-10T01:41:47.440Z,65.37
2022-08-10T01:42:47.428Z,65.37
2022-08-10T01:43:47.419Z,65.37
2022-08-10T01:44:47.407Z,65.37
2022-08-10T01:45:47.421Z,65.37
2022-08-10T01:46:47.385Z,65.37
2022-08-10T01:47:47.376Z,65.37
2022-08-10T01:48:47.362Z,65.37
2022-08-10T01:49:47.356Z,65.37
2022-08-10T01:50:59.303Z,65.37
2022-08-10T01:51:48.356Z,65.37
2022-08-10T01:52:47.321Z,65.37
2022-08-10T01:53:47.316Z,65.37
2022-08-10T01:54:47.303Z,65.47
2022-08-10T01:55:47.291Z,65.47
2022-08-10T01:56:47.313Z,65.47
2022-08-10T01:57:47.270Z,65.47
2022-08-10T01:58:47.256Z,65.47
2022-08-10T01:59:58.816Z,65.37
2022-08-10T02:00:48.296Z,65.47
2022-08-10T02:01:47.308Z,65.37
2022-08-10T02:02:47.215Z,65.47
2022-08-10T02:04:05.105Z,65.47
2022-08-10T02:04:48.214Z,65.37
2022-08-10T02:05:47.182Z,65.37
2022-08-10T02:06:47.170Z,65.47
2022-08-10T02:07:47.160Z,65.37
2022-08-10T02:08:47.149Z,65.47
2022-08-10T02:09:47.167Z,65.47
2022-08-10T02:10:47.127Z,65.47
2022-08-10T02:11:55.732Z,65.47
2022-08-10T02:12:48.106Z,65.47
2022-08-10T02:13:47.097Z,65.47
2022-08-10T02:14:47.086Z,65.47
2022-08-10T02:16:01.620Z,65.47
2022-08-10T02:16:48.062Z,65.47
2022-08-10T02:17:59.323Z,65.47
2022-08-10T02:18:48.063Z,65.37
2022-08-10T02:19:47.033Z,65.37
2022-08-10T02:20:47.040Z,65.37
2022-08-10T02:22:36.594Z,65.47
2022-08-10T02:22:48.294Z,65.47
2022-08-10T02:23:54.149Z,65.47
2022-08-10T02:24:48.002Z,65.47
2022-08-10T02:25:46.969Z,65.47
2022-08-10T02:26:46.957Z,65.47
2022-08-10T02:27:46.946Z,65.47
2022-08-10T02:28:46.956Z,65.47
2022-08-10T02:29:49.140Z,65.47
2022-08-10T02:30:46.913Z,65.47
2022-08-10T02:31:46.924Z,65.47
2022-08-10T02:32:51.738Z,65.47
2022-08-10T02:33:57.376Z,65.47
2022-08-10T02:34:47.868Z,65.47
2022-08-10T02:35:54.572Z,65.47
2022-08-10T02:36:47.848Z,65.47
2022-08-10T02:37:46.840Z,65.47
2022-08-10T02:38:58.793Z,65.47
2022-08-10T02:39:47.852Z,65.47
2022-08-10T02:45:00.751Z,65.47
2022-08-10T02:45:15.217Z,65.47
2022-08-10T02:45:21.692Z,65.47
2022-08-10T02:45:23.854Z,65.47
2022-08-10T02:45:26.777Z,65.47
2022-08-10T02:45:47.751Z,65.47
2022-08-10T02:46:46.740Z,65.47
2022-08-10T02:47:52.095Z,65.47
2022-08-10T02:48:47.752Z,65.47
2022-08-10T02:49:46.711Z,65.47
2022-08-10T02:50:46.698Z,65.47
2022-08-10T02:52:08.189Z,65.47
2022-08-10T02:52:47.676Z,65.47
2022-08-10T02:53:54.404Z,65.47
2022-08-10T02:54:47.676Z,65.47
2022-08-10T02:55:46.646Z,65.47
2022-08-10T02:56:46.634Z,65.47
2022-08-10T02:58:15.319Z,65.47
2022-08-10T02:58:47.636Z,65.47
2022-08-10T02:59:46.609Z,65.47
2022-08-10T03:00:46.746Z,65.47
2022-08-10T03:01:46.580Z,65.47
2022-08-10T03:02:46.575Z,65.47
2022-08-10T03:03:46.560Z,65.47
2022-08-10T03:04:54.985Z,65.47
2022-08-10T03:05:47.587Z,65.47
2022-08-10T03:06:46.529Z,65.47
2022-08-10T03:07:46.515Z,65.47
2022-08-10T03:08:46.532Z,65.47
2022-08-10T03:09:46.497Z,65.47
2022-08-10T03:10:46.483Z,65.47
2022-08-10T03:12:35.426Z,65.47
2022-08-10T03:12:47.662Z,65.47
2022-08-10T03:13:51.105Z,65.47
2022-08-10T03:14:47.459Z,65.47
2022-08-10T03:15:46.430Z,65.47
2022-08-10T03:16:46.424Z,65.47
2022-08-10T03:17:57.190Z,65.47
2022-08-10T03:18:47.397Z,65.47
2022-08-10T03:20:34.033Z,65.47
2022-08-10T03:20:47.399Z,65.47
2022-08-10T03:21:46.366Z,65.47
2022-08-10T03:22:46.373Z,65.47
2022-08-10T03:23:46.342Z,65.47
2022-08-10T03:24:46.352Z,65.47
2022-08-10T03:25:53.342Z,65.47
2022-08-10T03:26:47.331Z,65.47
2022-08-10T03:27:46.300Z,65.47
2022-08-10T03:28:46.289Z,65.47
2022-08-10T03:30:31.850Z,65.47
2022-08-10T03:30:47.299Z,65.47
2022-08-10T03:31:46.259Z,65.47
2022-08-10T03:32:46.248Z,65.47
2022-08-10T03:33:46.237Z,65.47
2022-08-10T03:34:46.226Z,65.47
2022-08-10T03:36:43.725Z,65.47
2022-08-10T03:36:47.224Z,65.47
2022-08-10T03:37:46.196Z,65.47
2022-08-10T03:38:46.276Z,65.47
2022-08-10T03:39:46.235Z,65.47
2022-08-10T03:40:46.795Z,65.47
2022-08-10T03:41:47.747Z,65.47
2022-08-10T03:42:47.140Z,65.47
2022-08-10T03:43:46.128Z,65.47
2022-08-10T03:44:50.236Z,65.47
2022-08-10T03:45:54.211Z,65.47
2022-08-10T03:46:47.097Z,65.56
2022-08-10T03:47:46.085Z,65.56
2022-08-10T03:48:48.600Z,65.47
2022-08-10T03:49:46.064Z,65.47
2022-08-10T03:50:52.286Z,65.56
2022-08-10T03:51:47.041Z,65.56
2022-08-10T03:52:46.032Z,65.47
2022-08-10T03:54:04.941Z,65.56
2022-08-10T03:54:47.013Z,65.56
2022-08-10T03:56:28.784Z,65.47
2022-08-10T03:56:47.014Z,65.56
2022-08-10T03:57:49.783Z,65.56
2022-08-10T03:58:45.970Z,65.56
2022-08-10T03:59:45.958Z,65.56
2022-08-10T04:00:46.016Z,65.56
2022-08-10T04:02:48.372Z,65.56
2022-08-10T04:02:52.879Z,65.56
2022-08-10T04:03:45.913Z,65.56
2022-08-10T04:04:45.905Z,65.56
2022-08-10T04:05:45.893Z,65.56
2022-08-10T04:06:45.887Z,65.56
2022-08-10T04:07:45.894Z,65.56
2022-08-10T04:08:45.863Z,65.56
2022-08-10T04:09:54.106Z,65.56
2022-08-10T04:10:46.943Z,65.56
2022-08-10T04:11:45.848Z,65.47
2022-08-10T04:12:45.840Z,65.56
2022-08-10T04:13:45.806Z,65.56
2022-08-10T04:14:50.684Z,65.56
2022-08-10T04:15:46.819Z,65.56
2022-08-10T04:16:45.774Z,65.47
2022-08-10T04:18:03.324Z,65.47
2022-08-10T04:18:46.774Z,65.47
2022-08-10T04:19:45.742Z,65.56
2022-08-10T04:20:45.732Z,65.56
2022-08-10T04:21:45.720Z,65.56
2022-08-10T04:22:45.710Z,65.56
2022-08-10T04:23:49.896Z,65.56
2022-08-10T04:24:46.689Z,65.56
2022-08-10T04:25:45.682Z,65.56
2022-08-10T04:26:45.673Z,65.56
2022-08-10T04:27:45.654Z,65.56
2022-08-10T04:28:45.669Z,65.56
2022-08-10T04:29:45.634Z,65.47
2022-08-10T04:30:45.623Z,65.47
2022-08-10T04:31:45.612Z,65.47
2022-08-10T04:32:45.605Z,65.47
2022-08-10T04:33:45.619Z,65.47
2022-08-10T04:34:45.580Z,65.47
2022-08-10T04:35:45.572Z,65.47
2022-08-10T04:36:45.559Z,65.47
2022-08-10T04:37:47.580Z,65.47
2022-08-10T04:38:45.538Z,65.47
2022-08-10T04:39:45.608Z,65.47
2022-08-10T04:40:45.515Z,65.47
2022-08-10T04:41:46.177Z,65.47
2022-08-10T04:42:45.494Z,65.47
2022-08-10T04:43:45.484Z,65.47
2022-08-10T04:44:45.473Z,65.47
2022-08-10T04:45:48.715Z,65.47
2022-08-10T04:46:57.754Z,65.47
2022-08-10T04:47:57.814Z,65.47
2022-08-10T04:49:01.445Z,65.47
2022-08-10T04:49:54.713Z,65.47
2022-08-10T04:50:46.441Z,65.47
2022-08-10T04:51:45.400Z,65.47
2022-08-10T04:52:45.388Z,65.47
2022-08-10T04:54:06.078Z,65.47
2022-08-10T04:54:46.365Z,65.47
2022-08-10T04:55:45.358Z,65.47
2022-08-10T04:56:45.365Z,65.47
2022-08-10T04:57:45.334Z,65.47
2022-08-10T04:58:45.325Z,65.47
2022-08-10T04:59:45.316Z,65.47
2022-08-10T05:00:45.326Z,65.47
2022-08-10T05:02:28.696Z,65.47
2022-08-10T05:02:46.280Z,65.47
2022-08-10T05:04:34.462Z,65.47
2022-08-10T05:04:46.260Z,65.47
2022-08-10T05:05:45.249Z,65.47
2022-08-10T05:06:45.258Z,65.47
2022-08-10T05:07:54.329Z,65.47
2022-08-10T05:08:46.213Z,65.47
2022-08-10T05:10:02.741Z,65.47
2022-08-10T05:10:46.232Z,65.47
2022-08-10T05:11:45.186Z,65.47
2022-08-10T05:12:45.173Z,65.56
2022-08-10T05:13:45.165Z,65.56
2022-08-10T05:14:45.151Z,65.47
2022-08-10T05:15:45.144Z,65.47
2022-08-10T05:16:45.152Z,65.47
2022-08-10T05:18:08.228Z,65.47
2022-08-10T05:18:46.108Z,65.56
2022-08-10T05:20:03.372Z,65.47
2022-08-10T05:20:50.024Z,65.47
2022-08-10T05:22:03.783Z,65.47
2022-08-10T05:22:46.085Z,65.47
2022-08-10T05:23:45.055Z,65.47
2022-08-10T05:24:45.045Z,65.47
2022-08-10T05:25:45.036Z,65.47
2022-08-10T05:27:00.705Z,65.47
2022-08-10T05:27:46.031Z,65.56
2022-08-10T05:28:45.002Z,65.56
2022-08-10T05:29:44.991Z,65.47
2022-08-10T05:30:45.979Z,65.56
2022-08-10T05:31:44.969Z,65.47
2022-08-10T05:32:58.159Z,65.47
2022-08-10T05:33:45.991Z,65.47
2022-08-10T05:34:44.937Z,65.56
2022-08-10T05:35:57.809Z,65.56
2022-08-10T05:36:45.916Z,65.56
2022-08-10T05:38:09.086Z,65.56
2022-08-10T05:38:45.892Z,65.56
2022-08-10T05:39:44.930Z,65.56
2022-08-10T05:40:47.074Z,65.56
2022-08-10T05:41:48.705Z,65.56
2022-08-10T05:42:45.850Z,65.56
2022-08-10T05:43:44.867Z,65.56
2022-08-10T05:44:44.829Z,65.56
2022-08-10T05:46:19.076Z,65.56
2022-08-10T05:46:45.808Z,65.56
2022-08-10T05:48:56.193Z,65.56
2022-08-10T05:48:56.298Z,65.47
2022-08-10T05:49:45.775Z,65.56
2022-08-10T05:50:44.785Z,65.56
2022-08-10T05:51:44.757Z,65.56
2022-08-10T05:52:44.746Z,65.56
2022-08-10T05:54:01.700Z,65.56
2022-08-10T05:54:45.722Z,65.56
2022-08-10T05:55:44.714Z,65.56
2022-08-10T05:56:54.236Z,65.56
2022-08-10T05:57:45.689Z,65.56
2022-08-10T05:58:44.679Z,65.56
2022-08-10T06:00:33.121Z,65.56
2022-08-10T06:00:49.964Z,65.56
2022-08-10T06:01:44.645Z,65.56
2022-08-10T06:02:45.868Z,65.56
2022-08-10T06:03:44.630Z,65.56
2022-08-10T06:04:44.614Z,65.56
2022-08-10T06:05:44.612Z,65.56
2022-08-10T06:06:44.620Z,65.56
2022-08-10T06:07:44.620Z,65.56
2022-08-10T06:08:44.573Z,65.56
2022-08-10T06:09:58.512Z,65.56
2022-08-10T06:12:23.629Z,65.56
2022-08-10T06:12:26.843Z,65.56
2022-08-10T06:12:54.114Z,65.56
2022-08-10T06:13:59.545Z,65.56
2022-08-10T06:14:52.960Z,65.56
2022-08-10T06:15:50.773Z,65.56
2022-08-10T06:16:45.484Z,65.56
2022-08-10T06:17:44.480Z,65.56
2022-08-10T06:18:44.486Z,65.56
2022-08-10T06:19:44.458Z,65.56
2022-08-10T06:20:44.447Z,65.56
2022-08-10T06:21:53.608Z,65.56
2022-08-10T06:22:45.421Z,65.56
2022-08-10T06:23:44.429Z,65.56
2022-08-10T06:25:12.305Z,65.56
2022-08-10T06:26:11.214Z,65.56
2022-08-10T06:26:45.401Z,65.56
2022-08-10T06:27:44.375Z,65.56
2022-08-10T06:28:56.033Z,65.56
2022-08-10T06:29:45.345Z,65.56
2022-08-10T06:30:44.386Z,65.56
2022-08-10T06:31:48.521Z,65.56
2022-08-10T06:32:45.314Z,65.56
2022-08-10T06:33:44.303Z,65.56
2022-08-10T06:34:44.290Z,65.56
2022-08-10T06:35:44.310Z,65.56
2022-08-10T06:36:44.271Z,65.56
2022-08-10T06:37:51.524Z,65.56
2022-08-10T06:38:45.268Z,65.56
2022-08-10T06:39:44.282Z,65.56
2022-08-10T06:40:44.225Z,65.56
2022-08-10T06:41:57.983Z,65.56
2022-08-10T06:42:45.205Z,65.56
2022-08-10T06:43:44.194Z,65.56
2022-08-10T06:44:44.183Z,65.56
2022-08-10T06:45:44.176Z,65.56
2022-08-10T06:46:46.582Z,65.56
2022-08-10T06:47:44.187Z,65.56
2022-08-10T06:48:44.141Z,65.56
2022-08-10T06:49:44.130Z,65.56
2022-08-10T06:50:56.134Z,65.56
2022-08-10T06:51:45.108Z,65.56
2022-08-10T06:52:45.104Z,65.56
2022-08-10T06:53:52.242Z,65.56
2022-08-10T06:54:45.082Z,65.56
2022-08-10T06:55:55.623Z,65.56
2022-08-10T06:57:01.722Z,65.56
2022-08-10T06:57:45.043Z,65.56
2022-08-10T06:58:45.033Z,65.56
2022-08-10T06:59:44.026Z,65.56
2022-08-10T07:00:44.113Z,65.56
2022-08-10T07:01:44.004Z,65.56
2022-08-10T07:02:45.633Z,65.56
2022-08-10T07:03:43.982Z,65.56
2022-08-10T07:04:43.970Z,65.56
2022-08-10T07:05:45.951Z,65.56
2022-08-10T07:06:44.947Z,65.56
2022-08-10T07:07:44.106Z,65.56
2022-08-10T07:08:43.925Z,65.56
2022-08-10T07:09:43.916Z,65.56
2022-08-10T07:10:46.282Z,65.56
2022-08-10T07:11:43.897Z,65.56
2022-08-10T07:12:43.922Z,65.56
2022-08-10T07:14:15.902Z,65.56
2022-08-10T07:14:44.864Z,65.56
2022-08-10T07:15:59.627Z,65.56
2022-08-10T07:16:44.841Z,65.56
2022-08-10T07:17:43.853Z,65.56
2022-08-10T07:18:43.843Z,65.56
2022-08-10T07:19:50.008Z,65.56
2022-08-10T07:20:44.799Z,65.47
2022-08-10T07:21:43.794Z,65.56
2022-08-10T07:23:54.784Z,65.56
2022-08-10T07:23:57.442Z,65.56
2022-08-10T07:24:44.753Z,65.56
2022-08-10T07:25:43.746Z,65.56
2022-08-10T07:26:43.733Z,65.56
2022-08-10T07:27:59.113Z,65.56
2022-08-10T07:28:47.980Z,65.56
2022-08-10T07:29:53.981Z,65.56
2022-08-10T07:30:44.694Z,65.56
2022-08-10T07:31:55.866Z,65.56
2022-08-10T07:32:44.668Z,65.56
2022-08-10T07:33:43.659Z,65.56
2022-08-10T07:34:43.673Z,65.56
2022-08-10T07:35:43.887Z,65.56
2022-08-10T07:36:43.626Z,65.56
2022-08-10T07:37:43.618Z,65.56
2022-08-10T07:38:43.635Z,65.56
2022-08-10T07:39:58.384Z,65.56
2022-08-10T07:40:44.651Z,65.56
2022-08-10T07:41:43.575Z,65.56
2022-08-10T07:42:45.873Z,65.56
2022-08-10T07:43:43.587Z,65.56
2022-08-10T07:44:43.540Z,65.56
2022-08-10T07:45:43.531Z,65.56
2022-08-10T07:46:43.518Z,65.56
2022-08-10T07:47:46.145Z,65.56
2022-08-10T07:48:44.516Z,65.56
2022-08-10T07:49:43.489Z,65.56
2022-08-10T07:50:43.475Z,65.56
2022-08-10T07:51:43.469Z,65.56
2022-08-10T07:52:43.454Z,65.56
2022-08-10T07:53:43.472Z,65.56
2022-08-10T07:54:43.434Z,65.56
2022-08-10T07:56:04.730Z,65.56
2022-08-10T07:56:49.252Z,65.56
2022-08-10T07:57:44.428Z,65.56
2022-08-10T07:58:49.770Z,65.56
2022-08-10T07:59:44.379Z,65.56
2022-08-10T08:00:43.368Z,65.56
2022-08-10T08:01:43.430Z,65.56
2022-08-10T08:02:43.346Z,65.56
2022-08-10T08:03:43.364Z,65.56
2022-08-10T08:04:43.325Z,65.56
2022-08-10T08:05:58.390Z,65.56
2022-08-10T08:06:44.302Z,65.56
2022-08-10T08:07:43.317Z,65.56
2022-08-10T08:08:43.283Z,65.56
2022-08-10T08:09:57.879Z,65.56
2022-08-10T08:10:44.260Z,65.56
2022-08-10T08:11:43.277Z,65.56
2022-08-10T08:12:43.239Z,65.56
2022-08-10T08:13:43.264Z,65.56
2022-08-10T08:14:43.219Z,65.56
2022-08-10T08:16:17.418Z,65.56
2022-08-10T08:16:44.195Z,65.56
2022-08-10T08:17:43.188Z,65.56
2022-08-10T08:18:58.264Z,65.56
2022-08-10T08:19:44.193Z,65.56
2022-08-10T08:20:43.153Z,65.56
2022-08-10T08:24:06.977Z,65.56
2022-08-10T08:24:14.787Z,65.56
2022-08-10T08:24:30.561Z,65.56
2022-08-10T08:24:44.112Z,65.56
2022-08-10T08:25:43.123Z,65.56
2022-08-10T08:26:43.111Z,65.56
2022-08-10T08:27:47.683Z,65.56
2022-08-10T08:28:43.069Z,65.56
2022-08-10T08:29:43.066Z,65.56
2022-08-10T08:30:47.004Z,65.56
2022-08-10T08:32:01.194Z,65.56
2022-08-10T08:32:44.028Z,65.56
2022-08-10T08:33:43.015Z,65.56
2022-08-10T08:34:43.007Z,65.56
2022-08-10T08:35:43.017Z,65.56
2022-08-10T08:36:42.982Z,65.56
2022-08-10T08:38:30.506Z,65.56
2022-08-10T08:38:43.963Z,65.56
2022-08-10T08:39:44.271Z,65.56
2022-08-10T08:40:42.962Z,65.56
2022-08-10T08:41:42.974Z,65.56
2022-08-10T08:42:42.920Z,65.56
2022-08-10T08:43:42.910Z,65.56
2022-08-10T08:44:42.901Z,65.56
2022-08-10T08:45:58.695Z,65.56
2022-08-10T08:46:43.896Z,65.56
2022-08-10T08:48:04.118Z,65.67
2022-08-10T08:48:43.874Z,65.67
2022-08-10T08:50:08.740Z,65.67
2022-08-10T08:50:43.831Z,65.56
2022-08-10T08:52:17.072Z,65.67
2022-08-10T08:52:43.815Z,65.67
2022-08-10T08:54:02.199Z,65.77
2022-08-10T08:54:43.812Z,65.67
2022-08-10T08:56:04.546Z,65.67
2022-08-10T08:56:48.169Z,65.67
2022-08-10T08:57:50.543Z,65.67
2022-08-10T08:58:43.749Z,65.67
2022-08-10T08:59:42.738Z,65.67
2022-08-10T09:00:42.746Z,65.67
2022-08-10T09:01:42.813Z,65.67
2022-08-10T09:02:42.703Z,65.67
2022-08-10T09:03:42.691Z,65.67
2022-08-10T09:04:42.685Z,65.67
2022-08-10T09:06:00.048Z,65.67
2022-08-10T09:06:43.661Z,65.67
2022-08-10T09:08:02.306Z,65.67
2022-08-10T09:08:43.640Z,65.56
2022-08-10T09:09:42.628Z,65.67
2022-08-10T09:10:42.627Z,65.67
2022-08-10T09:11:42.626Z,65.67
2022-08-10T09:12:42.597Z,65.67
2022-08-10T09:13:42.584Z,65.67
2022-08-10T09:14:42.593Z,65.67
2022-08-10T09:15:42.563Z,65.67
2022-08-10T09:16:42.556Z,65.67
2022-08-10T09:17:42.544Z,65.56
2022-08-10T09:18:42.534Z,65.53
2022-08-10T09:19:42.543Z,65.56
2022-08-10T09:20:42.516Z,65.56
2022-08-10T09:21:43.211Z,65.56
2022-08-10T09:22:43.491Z,65.67
2022-08-10T09:24:01.488Z,65.56
2022-08-10T09:24:43.469Z,65.67
2022-08-10T09:25:42.455Z,65.67
2022-08-10T09:26:42.444Z,65.67
2022-08-10T09:27:43.393Z,65.56
2022-08-10T09:28:42.426Z,65.56
2022-08-10T09:29:42.412Z,65.67
2022-08-10T09:30:52.377Z,65.56
2022-08-10T09:31:43.391Z,65.56
2022-08-10T09:36:17.462Z,65.56
2022-08-10T09:36:23.868Z,65.56
2022-08-10T09:36:27.929Z,65.56
2022-08-10T09:36:29.619Z,65.56
2022-08-10T09:36:43.364Z,65.56
2022-08-10T09:38:01.104Z,65.56
2022-08-10T09:38:43.318Z,65.56
2022-08-10T09:40:56.112Z,65.56
2022-08-10T09:40:57.921Z,65.56
2022-08-10T09:41:43.359Z,65.56
2022-08-10T09:42:42.298Z,65.56
2022-08-10T09:43:42.265Z,65.56
2022-08-10T09:44:58.006Z,65.56
2022-08-10T09:45:43.262Z,65.56
2022-08-10T09:46:42.251Z,65.56
2022-08-10T09:48:01.854Z,65.56
2022-08-10T09:48:43.231Z,65.56
2022-08-10T09:49:54.960Z,65.56
2022-08-10T09:51:27.971Z,65.56
2022-08-10T09:51:45.892Z,65.56
2022-08-10T09:52:42.168Z,65.56
2022-08-10T09:53:42.182Z,65.56
2022-08-10T09:54:42.144Z,65.56
2022-08-10T09:56:18.537Z,65.56
2022-08-10T09:56:43.121Z,65.56
2022-08-10T09:57:46.367Z,65.56
2022-08-10T09:58:42.101Z,65.56
2022-08-10T10:00:00.651Z,65.56
2022-08-10T10:00:43.105Z,65.47
2022-08-10T10:02:03.139Z,65.47
2022-08-10T10:02:43.061Z,65.47
2022-08-10T10:03:42.135Z,65.47
2022-08-10T10:04:42.036Z,65.56
2022-08-10T10:05:51.334Z,65.56
2022-08-10T10:06:43.018Z,65.47
2022-08-10T10:07:42.010Z,65.47
2022-08-10T10:08:43.089Z,65.47
2022-08-10T10:09:42.006Z,65.47
2022-08-10T10:10:47.588Z,65.47
2022-08-10T10:11:42.964Z,65.47
2022-08-10T10:12:41.953Z,65.47
2022-08-10T10:14:02.086Z,65.47
2022-08-10T10:14:42.950Z,65.47
2022-08-10T10:15:41.948Z,65.47
2022-08-10T10:16:41.913Z,65.47
2022-08-10T10:17:41.900Z,65.47
2022-08-10T10:18:41.886Z,65.47
2022-08-10T10:19:41.879Z,65.47
2022-08-10T10:20:41.865Z,65.47
2022-08-10T10:21:54.078Z,65.47
2022-08-10T10:22:42.844Z,65.47
2022-08-10T10:23:41.833Z,65.47
2022-08-10T10:24:41.821Z,65.47
2022-08-10T10:25:50.267Z,65.47
2022-08-10T10:26:42.800Z,65.47
2022-08-10T10:27:41.792Z,65.47
2022-08-10T10:29:19.707Z,65.47
2022-08-10T10:29:57.008Z,65.37
2022-08-10T10:30:42.787Z,65.37
2022-08-10T10:31:41.747Z,65.47
2022-08-10T10:32:41.735Z,65.47
2022-08-10T10:33:41.732Z,65.37
2022-08-10T10:34:41.714Z,65.47
2022-08-10T10:35:41.711Z,65.47
2022-08-10T10:36:41.724Z,65.47
2022-08-10T10:38:00.959Z,65.37
2022-08-10T10:38:42.671Z,65.37
2022-08-10T10:39:41.686Z,65.37
2022-08-10T10:40:41.649Z,65.37
2022-08-10T10:41:57.448Z,65.37
2022-08-10T10:42:45.155Z,65.37
2022-08-10T10:43:41.638Z,65.37
2022-08-10T10:44:42.453Z,65.37
2022-08-10T10:45:49.951Z,65.37
2022-08-10T10:46:42.605Z,65.37
2022-08-10T10:47:41.578Z,65.37
2022-08-10T10:48:41.630Z,65.37
2022-08-10T10:49:41.557Z,65.37
2022-08-10T10:50:41.566Z,65.37
2022-08-10T10:51:41.534Z,65.37
2022-08-10T10:52:41.521Z,65.26
2022-08-10T10:53:41.511Z,65.37
2022-08-10T10:54:41.500Z,65.37
2022-08-10T10:56:14.358Z,65.26
2022-08-10T10:56:42.477Z,65.37
2022-08-10T10:57:58.394Z,65.37
2022-08-10T10:58:42.475Z,65.37
2022-08-10T10:59:56.290Z,65.37
2022-08-10T11:00:42.436Z,65.37
2022-08-10T11:01:41.573Z,65.37
2022-08-10T11:02:41.413Z,65.37
2022-08-10T11:03:41.430Z,65.37
2022-08-10T11:04:41.394Z,65.37
2022-08-10T11:05:41.382Z,65.37
2022-08-10T11:06:41.370Z,65.26
2022-08-10T11:07:41.418Z,65.26
2022-08-10T11:08:41.348Z,65.26
2022-08-10T11:10:03.962Z,65.26
2022-08-10T11:10:46.999Z,65.26
2022-08-10T11:12:00.568Z,65.26
2022-08-10T11:12:44.192Z,65.26
2022-08-10T11:14:24.852Z,65.23
2022-08-10T11:14:42.305Z,65.37
2022-08-10T11:15:43.013Z,65.26
2022-08-10T11:16:42.262Z,65.26
2022-08-10T11:17:41.257Z,65.26
2022-08-10T11:18:41.268Z,65.37
2022-08-10T11:20:00.130Z,65.26
2022-08-10T11:20:42.220Z,65.26
2022-08-10T11:21:41.217Z,65.26
2022-08-10T11:22:41.198Z,65.26
2022-08-10T11:23:41.188Z,65.26
2022-08-10T11:24:48.123Z,65.23
2022-08-10T11:25:42.188Z,65.23
2022-08-10T11:26:41.156Z,65.23
2022-08-10T11:27:41.149Z,65.26
2022-08-10T11:28:41.136Z,65.23
2022-08-10T11:29:43.894Z,65.26
2022-08-10T11:30:42.142Z,65.23
2022-08-10T11:31:41.106Z,65.23
2022-08-10T11:32:41.095Z,65.26
2022-08-10T11:34:11.460Z,65.23
2022-08-10T11:34:49.061Z,65.23
2022-08-10T11:35:42.081Z,65.23
2022-08-10T11:36:41.049Z,65.23
2022-08-10T11:38:29.819Z,65.23
2022-08-10T11:39:03.992Z,65.23
2022-08-10T11:39:48.552Z,65.23
2022-08-10T11:40:42.005Z,65.23
2022-08-10T11:42:09.402Z,65.23
2022-08-10T11:42:41.984Z,65.23
2022-08-10T11:43:40.977Z,65.23
2022-08-10T11:44:40.966Z,65.23
2022-08-10T11:45:51.486Z,65.23
2022-08-10T11:46:41.965Z,65.23
2022-08-10T11:47:40.932Z,65.23
2022-08-10T11:48:53.922Z,65.23
2022-08-10T11:49:41.915Z,65.23
2022-08-10T11:50:40.901Z,65.23
2022-08-10T11:51:40.891Z,65.23
2022-08-10T11:52:40.903Z,65.14
2022-08-10T11:53:40.894Z,65.14
2022-08-10T11:54:40.860Z,65.14
2022-08-10T11:55:40.847Z,65.14
2022-08-10T11:56:40.837Z,65.14
2022-08-10T11:57:53.956Z,65.14
2022-08-10T11:58:41.834Z,65.14
2022-08-10T11:59:40.840Z,65.14
2022-08-10T12:00:40.795Z,65.14
2022-08-10T12:01:40.784Z,65.14
2022-08-10T12:02:41.097Z,65.14
2022-08-10T12:03:40.763Z,65.14
2022-08-10T12:04:40.759Z,65.14
2022-08-10T12:05:52.084Z,65.14
2022-08-10T12:06:55.312Z,65.14
2022-08-10T12:10:04.072Z,65.14
2022-08-10T12:10:06.002Z,65.14
2022-08-10T12:10:06.814Z,65.14
2022-08-10T12:10:41.688Z,65.14
2022-08-10T12:11:40.675Z,65.14
2022-08-10T12:12:40.664Z,65.14
2022-08-10T12:13:46.595Z,65.14
2022-08-10T12:14:41.642Z,65.14
2022-08-10T12:15:40.634Z,65.14
2022-08-10T12:16:40.621Z,65.14
2022-08-10T12:17:40.611Z,65.14
2022-08-10T12:18:40.626Z,65.14
2022-08-10T12:20:01.122Z,65.14
2022-08-10T12:20:41.577Z,65.14
2022-08-10T12:21:40.570Z,65.14
2022-08-10T12:22:40.557Z,65.04
2022-08-10T12:23:40.572Z,65.14
2022-08-10T12:24:40.535Z,65.04
2022-08-10T12:25:55.683Z,65.04
2022-08-10T12:26:41.517Z,65.04
2022-08-10T12:27:40.506Z,65.04
2022-08-10T12:28:50.937Z,65.04
2022-08-10T12:29:41.481Z,65.04
2022-08-10T12:30:40.472Z,65.04
2022-08-10T12:31:40.462Z,65.04
2022-08-10T12:32:40.450Z,65.04
2022-08-10T12:34:02.633Z,65.04
2022-08-10T12:34:41.447Z,65.04
2022-08-10T12:35:51.599Z,65.04
2022-08-10T12:36:41.484Z,65.04
2022-08-10T12:37:40.398Z,65.04
2022-08-10T12:38:40.407Z,65.04
2022-08-10T12:39:40.460Z,65.04
2022-08-10T12:40:40.430Z,65.04
2022-08-10T12:41:44.654Z,65.04
2022-08-10T12:42:42.146Z,65.04
2022-08-10T12:44:06.203Z,65.04
2022-08-10T12:44:42.753Z,65.04
2022-08-10T12:45:40.312Z,65.04
2022-08-10T12:46:40.301Z,65.04
2022-08-10T12:47:40.290Z,65.04
2022-08-10T12:48:40.342Z,65.04
2022-08-10T12:49:40.266Z,65.04
2022-08-10T12:50:41.257Z,65.04
2022-08-10T12:51:40.248Z,65.04
2022-08-10T12:52:41.255Z,65.04